North River — WYR2549 — position and weather

sailwx.info

Track history (hours):
 
Tides and Currents Weather Stations Pressure Air Temp Water Temp Dewpoint Dewpoint Depression Visibility Wind Speed Wind Dir Waves Ship Positions

North River

Owner: CITY OF NEW YORK, Brooklyn, NY. More information available from US FCC via Universal Licensing System and Coast Guard Vessel Documentation Center.

Last reported at 2016-Aug-22 21:10 UTC. Time now 2016-Aug-24 13:42 UTC.
Position N 40°47' W 073°54'.

Length 78 m.

Type: Tanker. MMSI: 367074110.

Date/timePositionNaut miles runAvg speedWind from/ knotsBaromVisibWave heightAir tempDewpointWater temp
2016-Aug-22 21:10N 40°47' W 073°54'3 0.9
2016-Aug-22 18:11N 40°46' W 073°57'5 8.0
2016-Aug-22 17:33N 40°42' W 074°01'0 0.1
2016-Aug-22 12:33N 40°42' W 074°01'  
2016-Aug-17 20:26N 40°47' W 073°55'1010.8
2016-Aug-17 19:33N 40°39' W 074°02'0 0.2
2016-Aug-17 18:33N 40°39' W 074°02'0 0.0
2016-Aug-17 17:33N 40°39' W 074°02'6 5.5
2016-Aug-17 16:33N 40°43' W 073°58'5 0.3
2016-Aug-16 23:33N 40°47' W 073°53'2 0.8
2016-Aug-16 21:26N 40°47' W 073°56'4 4.2
2016-Aug-16 20:33N 40°46' W 074°00'3 1.1
2016-Aug-16 17:33N 40°43' W 074°01'4 0.2
2016-Aug-15 16:34N 40°45' W 073°57'3 2.6
2016-Aug-15 15:33N 40°48' W 073°59'2 0.9
2016-Aug-15 13:15N 40°49' W 073°58'811.7
2016-Aug-15 12:34N 40°42' W 074°01'8 0.2
2016-Aug-13 17:18N 40°48' W 073°54'2 0.1
2016-Aug-12 22:22N 40°47' W 073°56'4 4.9
2016-Aug-12 21:33N 40°45' W 074°01'  
Track history (hours):
 
Tides and Currents Weather Stations Pressure Air Temp Water Temp Dewpoint Dewpoint Depression Visibility Wind Speed Wind Dir Waves Ship Positions

North River

Owner: CITY OF NEW YORK, Brooklyn, NY. More information available from US FCC via Universal Licensing System and Coast Guard Vessel Documentation Center.

Last reported at 2016-Aug-22 21:10 UTC. Time now 2016-Aug-24 13:43 UTC.
Position N 40°47' W 073°54'.

Length 78 m.

Type: Tanker. MMSI: 367074110.

Date/timePositionNaut miles runAvg speedWind from/ knotsBaromVisibWave heightAir tempDewpointWater temp
2016-Aug-22 21:10N 40°47' W 073°54'3 0.9
2016-Aug-22 18:11N 40°46' W 073°57'5 8.0
2016-Aug-22 17:33N 40°42' W 074°01'0 0.1
2016-Aug-22 12:33N 40°42' W 074°01'  
2016-Aug-17 20:26N 40°47' W 073°55'1010.8
2016-Aug-17 19:33N 40°39' W 074°02'0 0.2
2016-Aug-17 18:33N 40°39' W 074°02'0 0.0
2016-Aug-17 17:33N 40°39' W 074°02'6 5.5
2016-Aug-17 16:33N 40°43' W 073°58'5 0.3
2016-Aug-16 23:33N 40°47' W 073°53'2 0.8
2016-Aug-16 21:26N 40°47' W 073°56'4 4.2
2016-Aug-16 20:33N 40°46' W 074°00'3 1.1
2016-Aug-16 17:33N 40°43' W 074°01'4 0.2
2016-Aug-15 16:34N 40°45' W 073°57'3 2.6
2016-Aug-15 15:33N 40°48' W 073°59'2 0.9
2016-Aug-15 13:15N 40°49' W 073°58'811.7
2016-Aug-15 12:34N 40°42' W 074°01'8 0.2
2016-Aug-13 17:18N 40°48' W 073°54'2 0.1
2016-Aug-12 22:22N 40°47' W 073°56'4 4.9
2016-Aug-12 21:33N 40°45' W 074°01'  

Dump ship's entire track history